Accueil
METAR-TAF:

METAR-TAF

Aéroports :

Base aérienne 156 Bizerte Sidi Ahmed

Bizerte, Tunisie

latitude: 37-15N, longitude: 009-48E, altitude: 5 m

Observation

Le bulletin a été fait il y a 26 minutes, à 19:00 UTC
Vent 3 kt de nord-est, variant entre nord/nord-ouest et est
Température 15°C
Humidité 77%
Pression 1013 hPa
Visibilité 10 km ou plus
Quelques nuages à une hauteur de 2000 ft

METAR: DTTB 311900Z 04003KT 340V080 9999 FEW020 15/11 Q1013

Heure: 20:26 (19:26 UTC)

Prévision

Le bulletin a été fait il y a 1 heure et 26 minutes, à 18:00 UTC
Prévision valable du 31 à 19 UTC au 01 à 04 UTC
Vent 5 kt de nord-est
Visibilité 10 km ou plus
Quelques nuages à une hauteur de 2000 ft

TAF: DTTB 311800Z 3119/0104 05005KT 9999 FEW020

Observations et prévisions météorologiques de plus de 4000 aéroports (messages METAR et TAF).

Les stations disponibles sont représentées par des disques jaunes et rouges sur la carte.

Passer la souris dessus pour voir le nom de la station.

Cliquer dessus pour voir les observations et prévisions météorologiques.

Pour changer de carte: cliquez sur les boutons verts avec une croix noire pour zoomer, sur le bouton vert avec un tiret pour effectuer un zoom arrière, ou sur les flèches vertes pour les cartes adjacentes.


METAR-TAF: